Time;durP1;ratioP1;P1;durP2;ratioP2;P2;SDS_P1;SDS_P2;PMS_P1;PMS_P2;Temp;Humidity;BMP_temperature;BMP_pressure;BME280_temperature;BME280_humidity;BME280_pressure;Samples;Min_cycle;Max_cycle;Signal;HPM_P1;HPM_P2
2023/01/27 00:02:01;;;;;;;28.30;20.20;;;21.80;69.40;;;;;;222279;1257;25368;-47
2023/01/27 00:07:05;;;;;;;28.70;19.50;;;22.00;68.90;;;;;;222273;1263;22523;-49
2023/01/27 00:17:41;;;;;;;27.20;20.60;;;22.10;69.20;;;;;;222023;1261;24208;-45
2023/01/27 00:28:08;;;;;;;25.90;19.90;;;22.30;68.70;;;;;;222128;1263;22545;-48
2023/01/27 00:33:28;;;;;;;24.40;20.30;;;22.40;68.50;;;;;;226573;1267;25408;-47
2023/01/27 00:38:39;;;;;;;24.80;18.20;;;22.40;67.50;;;;;;222571;1260;22546;-46
2023/01/27 00:43:44;;;;;;;24.80;19.80;;;22.40;67.60;;;;;;222428;1260;22602;-46
2023/01/27 00:48:48;;;;;;;21.80;19.10;;;22.30;67.80;;;;;;221931;1256;25304;-45
2023/01/27 00:53:53;;;;;;;21.60;18.60;;;22.10;69.30;;;;;;222133;1266;25265;-48
2023/01/27 00:58:57;;;;;;;22.10;19.30;;;22.00;69.10;;;;;;230015;1269;22180;-46
2023/01/27 01:04:01;;;;;;;21.60;19.40;;;22.10;69.00;;;;;;226867;1270;22767;-47
2023/01/27 01:09:06;;;;;;;23.10;19.10;;;22.10;68.40;;;;;;224708;1267;22534;-46
2023/01/27 01:14:10;;;;;;;21.90;18.90;;;22.10;68.70;;;;;;222089;1265;22704;-46
2023/01/27 01:19:14;;;;;;;24.10;20.60;;;22.00;68.60;;;;;;222076;1266;22904;-45
2023/01/27 01:24:18;;;;;;;20.90;18.70;;;22.00;68.80;;;;;;222278;1256;24358;-46
2023/01/27 01:29:23;;;;;;;21.30;18.70;;;21.90;69.10;;;;;;222038;1257;22531;-48
2023/01/27 01:34:27;;;;;;;20.00;17.90;;;21.80;69.20;;;;;;222243;1266;25409;-49
2023/01/27 01:39:32;;;;;;;21.40;17.90;;;21.80;69.50;;;;;;222282;1247;22669;-46
2023/01/27 01:44:36;;;;;;;19.80;17.70;;;21.90;68.90;;;;;;222019;1266;24255;-47
2023/01/27 01:49:44;;;;;;;22.70;18.30;;;21.90;68.40;;;;;;222140;1257;23877;-50
2023/01/27 01:54:55;;;;;;;20.40;18.30;;;22.10;67.70;;;;;;222021;1256;22527;-48
2023/01/27 02:00:06;;;;;;;22.40;18.80;;;22.20;67.20;;;;;;222205;1256;22769;-47
2023/01/27 02:05:26;;;;;;;20.80;18.70;;;22.10;67.50;;;;;;224137;1264;24238;-49
2023/01/27 02:10:32;;;;;;;20.90;18.00;;;22.20;67.00;;;;;;221673;1269;330319;-50
2023/01/27 02:15:37;;;;;;;22.40;18.00;;;22.10;67.40;;;;;;224389;1253;22537;-48
2023/01/27 02:20:46;;;;;;;20.60;18.50;;;22.10;67.90;;;;;;222102;1270;23987;-48
2023/01/27 02:26:06;;;;;;;21.40;19.10;;;22.00;67.60;;;;;;222155;1255;22536;-49
2023/01/27 02:31:10;;;;;;;20.10;18.00;;;21.90;67.80;;;;;;222198;1263;22640;-47
2023/01/27 02:36:17;;;;;;;19.50;17.40;;;21.90;67.90;;;;;;221947;1269;24059;-46
2023/01/27 02:41:35;;;;;;;21.30;19.10;;;21.90;67.80;;;;;;222159;1256;22534;-48
2023/01/27 02:46:40;;;;;;;20.20;18.00;;;21.80;68.00;;;;;;222186;1257;22532;-48
2023/01/27 02:51:44;;;;;;;20.10;17.90;;;21.90;67.70;;;;;;222054;1267;25436;-46
2023/01/27 02:56:49;;;;;;;20.30;18.20;;;21.80;67.20;;;;;;222115;1262;26626;-48
2023/01/27 03:01:53;;;;;;;19.90;17.80;;;21.80;67.60;;;;;;222244;1259;22650;-50
2023/01/27 03:06:58;;;;;;;19.40;17.40;;;21.70;67.60;;;;;;222226;1257;24210;-48
2023/01/27 03:12:21;;;;;;;19.00;17.10;;;21.70;67.50;;;;;;222172;1257;24265;-48
2023/01/27 03:22:49;;;;;;;20.10;18.10;;;21.70;67.50;;;;;;222023;1259;22616;-46
2023/01/27 03:27:55;;;;;;;18.90;16.70;;;21.70;67.50;;;;;;221897;1269;22538;-46
2023/01/27 03:33:16;;;;;;;;;;;21.90;67.10;;;;;;222153;1263;22650;-46
2023/01/27 03:49:16;;;;;;;19.20;17.20;;;22.00;66.50;;;;;;222167;1255;22561;-47
2023/01/27 03:54:19;;;;;;;18.70;16.80;;;22.00;66.20;;;;;;222376;1257;22531;-50
2023/01/27 03:59:23;;;;;;;19.70;17.50;;;22.00;66.40;;;;;;222248;1257;23917;-47
2023/01/27 04:09:51;;;;;;;18.70;16.70;;;21.90;66.20;;;;;;221956;1256;23862;-47
2023/01/27 04:14:55;;;;;;;20.80;18.10;;;21.90;66.10;;;;;;222257;1256;23909;-48
2023/01/27 04:19:59;;;;;;;19.50;17.40;;;21.90;65.90;;;;;;222135;1263;23947;-48
2023/01/27 04:25:04;;;;;;;20.80;18.70;;;21.90;65.80;;;;;;222193;1262;22549;-46
2023/01/27 04:30:09;;;;;;;21.90;19.30;;;21.90;65.80;;;;;;221854;1263;23925;-49
2023/01/27 04:35:13;;;;;;;20.80;18.60;;;21.80;66.00;;;;;;222190;1256;22523;-46
2023/01/27 04:40:18;;;;;;;20.50;18.40;;;21.80;65.60;;;;;;221946;1256;24869;-47
2023/01/27 04:45:22;;;;;;;20.60;18.50;;;21.80;65.60;;;;;;221702;1259;22610;-47
2023/01/27 04:50:26;;;;;;;20.60;18.60;;;21.80;65.20;;;;;;222039;1266;22547;-46
2023/01/27 04:55:31;;;;;;;20.30;18.20;;;21.70;65.60;;;;;;222548;1263;24206;-47
2023/01/27 05:00:34;;;;;;;19.80;17.30;;;21.70;65.50;;;;;;222336;1263;24248;-46
2023/01/27 05:05:39;;;;;;;18.70;16.80;;;21.60;65.70;;;;;;222036;1263;22620;-48
2023/01/27 05:10:44;;;;;;;20.60;18.30;;;21.60;65.50;;;;;;222052;1257;24178;-47
2023/01/27 05:15:48;;;;;;;19.50;17.50;;;21.60;65.70;;;;;;222059;1263;24367;-47
2023/01/27 05:20:52;;;;;;;20.70;18.30;;;21.60;65.50;;;;;;222009;1256;22537;-48
2023/01/27 05:25:56;;;;;;;19.40;17.50;;;21.70;65.70;;;;;;221976;1266;23861;-47
2023/01/27 05:31:02;;;;;;;18.70;16.60;;;21.80;65.00;;;;;;222185;1257;22664;-49
2023/01/27 05:36:08;;;;;;;19.10;17.20;;;21.90;64.60;;;;;;222268;1269;22579;-46
2023/01/27 05:41:14;;;;;;;18.10;16.30;;;21.90;64.60;;;;;;222248;1269;24275;-45
2023/01/27 05:46:20;;;;;;;19.10;17.10;;;21.90;64.40;;;;;;222163;1254;22889;-45
2023/01/27 05:51:25;;;;;;;17.90;16.00;;;21.90;64.70;;;;;;222333;1263;24177;-46
2023/01/27 05:56:29;;;;;;;17.90;16.10;;;22.00;64.20;;;;;;222479;1248;24158;-47
2023/01/27 06:01:34;;;;;;;18.40;16.50;;;21.90;64.10;;;;;;222404;1263;23425;-48
2023/01/27 06:06:38;;;;;;;18.90;16.90;;;21.90;64.10;;;;;;222130;1256;22640;-47
2023/01/27 06:11:42;;;;;;;17.50;15.70;;;21.90;64.10;;;;;;222230;1267;22640;-47
2023/01/27 06:16:46;;;;;;;18.40;16.40;;;21.80;63.90;;;;;;222132;1247;22535;-46
2023/01/27 06:21:50;;;;;;;18.30;16.40;;;21.70;63.70;;;;;;222288;1257;25313;-46
2023/01/27 06:26:54;;;;;;;18.40;15.70;;;21.70;63.80;;;;;;222306;1266;22653;-46
2023/01/27 06:31:58;;;;;;;18.10;16.20;;;21.70;63.90;;;;;;222024;1263;22972;-46
2023/01/27 06:37:03;;;;;;;17.90;16.00;;;21.70;64.10;;;;;;222101;1268;22952;-46
2023/01/27 06:42:08;;;;;;;17.20;15.40;;;21.70;63.70;;;;;;222068;1256;24891;-47
2023/01/27 06:47:12;;;;;;;17.40;15.60;;;21.60;63.70;;;;;;222124;1247;25139;-46
2023/01/27 06:52:16;;;;;;;17.50;15.70;;;21.60;63.60;;;;;;222131;1269;22564;-48
2023/01/27 06:57:20;;;;;;;17.70;15.90;;;21.60;63.50;;;;;;222290;1268;22696;-48
2023/01/27 07:02:24;;;;;;;16.60;15.00;;;21.60;63.80;;;;;;222049;1263;22629;-46
2023/01/27 07:07:28;;;;;;;16.00;14.30;;;21.60;63.60;;;;;;222142;1247;22521;-49
2023/01/27 07:12:36;;;;;;;15.70;14.00;;;21.50;63.60;;;;;;222220;1263;22536;-47
2023/01/27 07:17:41;;;;;;;17.10;14.50;;;21.50;63.80;;;;;;222050;1246;23874;-46
2023/01/27 07:22:45;;;;;;;17.70;14.50;;;21.60;63.50;;;;;;222004;1267;22861;-46
2023/01/27 07:27:49;;;;;;;16.40;14.60;;;21.80;63.20;;;;;;222161;1269;24762;-46
2023/01/27 07:32:54;;;;;;;15.80;14.20;;;21.90;62.80;;;;;;222068;1269;22606;-46
2023/01/27 07:37:58;;;;;;;17.00;14.40;;;22.10;62.00;;;;;;221786;1266;24868;-45
2023/01/27 07:43:03;;;;;;;15.90;14.20;;;22.20;61.80;;;;;;222063;1248;22639;-44
2023/01/27 07:48:11;;;;;;;15.90;12.90;;;22.20;61.30;;;;;;221859;1264;22543;-44
2023/01/27 07:53:15;;;;;;;17.10;14.50;;;22.10;61.90;;;;;;222099;1256;25423;-44
2023/01/27 07:58:19;;;;;;;17.40;13.20;;;22.20;61.60;;;;;;222198;1256;22672;-44
2023/01/27 08:03:26;;;;;;;14.50;13.20;;;22.10;61.90;;;;;;222071;1269;25418;-47
2023/01/27 08:08:30;;;;;;;16.20;13.90;;;21.90;61.90;;;;;;221931;1269;25690;-45
2023/01/27 08:13:35;;;;;;;15.20;12.40;;;21.90;62.10;;;;;;222033;1266;22625;-47
2023/01/27 08:18:39;;;;;;;18.40;13.70;;;21.90;62.80;;;;;;221924;1260;22725;-46
2023/01/27 08:23:43;;;;;;;14.90;13.30;;;21.80;62.10;;;;;;222595;1259;23915;-47
2023/01/27 08:28:47;;;;;;;17.70;13.80;;;21.70;62.20;;;;;;222198;1269;22537;-45
2023/01/27 08:33:53;;;;;;;14.60;12.70;;;21.70;62.70;;;;;;222041;1263;23895;-48
2023/01/27 08:38:57;;;;;;;19.50;13.30;;;21.70;62.60;;;;;;221955;1267;25473;-46
2023/01/27 08:44:01;;;;;;;16.90;12.50;;;21.70;62.60;;;;;;222166;1257;22570;-48
2023/01/27 08:49:05;;;;;;;19.60;13.40;;;21.60;63.00;;;;;;222200;1270;22894;-51
2023/01/27 08:54:11;;;;;;;22.60;13.10;;;21.60;62.60;;;;;;222521;1267;22543;-46
2023/01/27 08:59:19;;;;;;;21.10;12.50;;;21.60;62.70;;;;;;222353;1263;24238;-46
2023/01/27 09:04:23;;;;;;;22.40;13.50;;;21.60;62.70;;;;;;222190;1263;23893;-46
2023/01/27 09:09:27;;;;;;;18.00;13.50;;;21.60;61.70;;;;;;222024;1269;25362;-46
2023/01/27 09:14:31;;;;;;;23.80;13.40;;;21.60;61.80;;;;;;222242;1253;23891;-47
2023/01/27 09:19:35;;;;;;;16.90;12.70;;;21.60;61.00;;;;;;222151;1267;25533;-45
2023/01/27 09:24:40;;;;;;;19.50;12.50;;;21.70;61.40;;;;;;222292;1263;24072;-47
2023/01/27 09:29:45;;;;;;;15.70;12.70;;;21.70;61.00;;;;;;222033;1263;25594;-45
2023/01/27 09:34:48;;;;;;;21.80;13.70;;;21.80;61.10;;;;;;221991;1263;22546;-47
2023/01/27 09:39:58;;;;;;;21.80;14.00;;;21.80;60.60;;;;;;222260;1257;24203;-44
2023/01/27 09:46:01;;;;;;;20.50;13.90;;;21.80;60.60;;;;;;221988;1256;22544;-47
2023/01/27 09:51:29;;;;;;;15.50;13.70;;;21.80;60.40;;;;;;221837;1258;24212;-44
2023/01/27 09:56:52;;;;;;;22.30;13.50;;;21.80;60.30;;;;;;222223;1260;22527;-45
2023/01/27 10:02:09;;;;;;;21.50;13.60;;;21.80;60.50;;;;;;222175;1263;25422;-45
2023/01/27 10:07:51;;;;;;;23.60;13.30;;;21.90;59.10;;;;;;225127;1263;24206;-43
2023/01/27 10:13:07;;;;;;;21.50;13.70;;;21.80;59.40;;;;;;222160;1262;23915;-45
2023/01/27 10:18:33;;;;;;;22.40;13.50;;;21.80;59.30;;;;;;222560;1267;25246;-43
2023/01/27 10:24:08;;;;;;;34.10;12.80;;;21.70;59.00;;;;;;222103;1263;23167;-46
2023/01/27 10:29:44;;;;;;;22.10;13.50;;;21.80;60.00;;;;;;222129;1263;22659;-45
2023/01/27 10:34:57;;;;;;;19.10;12.20;;;21.90;58.80;;;;;;222340;1247;26314;-46
2023/01/27 10:40:07;;;;;;;21.70;12.70;;;22.00;59.60;;;;;;222278;1266;22573;-48
2023/01/27 10:46:02;;;;;;;23.50;13.80;;;22.10;58.60;;;;;;222447;1263;25230;-45
2023/01/27 10:51:27;;;;;;;18.70;12.60;;;22.30;58.30;;;;;;220797;1272;23271;-45
2023/01/27 10:56:37;;;;;;;18.00;12.90;;;22.30;56.80;;;;;;222090;1248;24238;-43
2023/01/27 11:01:52;;;;;;;17.70;14.00;;;22.50;56.40;;;;;;222092;1262;24237;-44
2023/01/27 11:06:58;;;;;;;17.00;13.60;;;22.60;56.00;;;;;;222564;1267;25329;-46
2023/01/27 11:12:11;;;;;;;15.60;13.70;;;22.60;56.10;;;;;;221975;1260;25456;-46
2023/01/27 11:17:31;;;;;;;16.90;14.90;;;22.60;56.00;;;;;;221953;1256;22936;-46
2023/01/27 11:22:42;;;;;;;19.90;15.80;;;22.60;56.40;;;;;;222040;1248;24196;-47
2023/01/27 11:27:59;;;;;;;21.20;15.00;;;22.60;56.90;;;;;;221994;1259;22751;-46
2023/01/27 11:33:23;;;;;;;20.00;14.50;;;22.60;57.10;;;;;;222178;1259;22691;-46
2023/01/27 11:38:28;;;;;;;27.50;15.90;;;22.70;57.70;;;;;;221742;1264;24961;-48
2023/01/27 11:43:37;;;;;;;19.80;16.50;;;22.80;56.60;;;;;;221772;1264;22532;-48
2023/01/27 11:48:56;;;;;;;20.90;16.50;;;22.90;56.20;;;;;;221804;1256;25306;-45
2023/01/27 11:54:13;;;;;;;22.80;16.60;;;22.90;56.40;;;;;;221709;1269;22552;-45
2023/01/27 11:59:30;;;;;;;21.40;17.60;;;23.00;56.10;;;;;;221579;1263;22767;-44
2023/01/27 12:04:50;;;;;;;28.00;18.90;;;22.90;57.60;;;;;;221426;1257;23985;-45
2023/01/27 12:09:54;;;;;;;22.50;17.60;;;22.90;56.80;;;;;;222447;1258;22515;-45
2023/01/27 12:15:03;;;;;;;23.80;17.60;;;22.90;57.50;;;;;;221297;1269;22530;-46
2023/01/27 12:20:18;;;;;;;24.40;19.10;;;22.80;58.10;;;;;;221873;1269;23449;-43
2023/01/27 12:25:28;;;;;;;23.10;18.70;;;22.70;57.80;;;;;;222008;1249;23869;-43
2023/01/27 12:30:37;;;;;;;24.90;19.00;;;22.70;58.50;;;;;;221986;1269;24211;-44
2023/01/27 12:36:08;;;;;;;26.30;18.90;;;22.70;58.80;;;;;;222234;1260;22982;-42
2023/01/27 12:41:50;;;;;;;22.70;18.20;;;22.60;58.80;;;;;;224992;1253;23913;-45
2023/01/27 12:53:16;;;;;;;27.00;19.50;;;22.70;58.30;;;;;;221712;1264;23686;-48
2023/01/27 12:58:39;;;;;;;24.20;19.20;;;22.80;58.70;;;;;;222730;1270;22542;-45
2023/01/27 13:03:44;;;;;;;23.80;19.60;;;22.90;58.20;;;;;;222050;1258;23884;-46
2023/01/27 13:08:51;;;;;;;25.00;19.10;;;22.90;57.90;;;;;;221957;1257;25344;-44
2023/01/27 13:13:56;;;;;;;24.20;19.90;;;22.90;57.60;;;;;;222294;1263;25205;-43
2023/01/27 13:19:00;;;;;;;26.80;20.70;;;23.00;57.80;;;;;;222386;1264;24212;-45
2023/01/27 13:24:13;;;;;;;25.80;20.70;;;23.00;57.20;;;;;;221992;1266;24176;-46
2023/01/27 13:29:25;;;;;;;26.80;20.70;;;23.00;57.30;;;;;;221883;1270;22701;-47
2023/01/27 13:34:52;;;;;;;;;;;23.00;57.30;;;;;;222117;1266;22630;-45
2023/01/27 13:40:07;;;;;;;28.50;21.70;;;23.00;57.60;;;;;;222136;1264;24238;-46
2023/01/27 13:45:19;;;;;;;29.80;22.90;;;22.90;58.60;;;;;;222330;1270;25440;-44
2023/01/27 13:50:32;;;;;;;33.00;21.80;;;22.90;58.20;;;;;;222202;1257;22531;-46
2023/01/27 13:55:57;;;;;;;33.10;21.10;;;22.90;59.50;;;;;;222440;1263;25475;-44
2023/01/27 14:01:59;;;;;;;29.20;22.30;;;22.90;58.80;;;;;;215196;1292;543680;-49
2023/01/27 14:07:17;;;;;;;36.50;21.90;;;23.00;59.90;;;;;;221151;1277;22791;-45
2023/01/27 14:12:27;;;;;;;27.70;20.80;;;23.00;59.50;;;;;;220213;1272;165021;-44
2023/01/27 14:17:42;;;;;;;27.40;21.70;;;23.10;59.60;;;;;;221379;1267;22982;-45
2023/01/27 14:22:52;;;;;;;26.40;20.30;;;23.10;59.20;;;;;;221268;1259;25320;-44
2023/01/27 14:28:18;;;;;;;26.10;20.70;;;23.20;59.00;;;;;;221476;1270;26768;-43
2023/01/27 14:33:34;;;;;;;29.50;21.00;;;23.30;58.70;;;;;;221522;1252;24267;-45
2023/01/27 14:39:17;;;;;;;27.40;19.60;;;23.40;58.80;;;;;;221558;1269;25586;-44
2023/01/27 14:44:21;;;;;;;24.90;19.30;;;23.40;58.80;;;;;;220264;1281;24383;-45
2023/01/27 14:50:23;;;;;;;23.70;18.60;;;23.50;59.10;;;;;;220215;1275;24328;-45
2023/01/27 14:55:45;;;;;;;25.40;20.30;;;23.60;59.50;;;;;;219182;1266;24246;-44
2023/01/27 15:01:04;;;;;;;27.10;20.80;;;23.40;60.10;;;;;;220136;1278;22659;-44
2023/01/27 15:06:12;;;;;;;37.60;20.40;;;23.50;60.40;;;;;;220226;1270;22543;-44
2023/01/27 15:11:38;;;;;;;25.10;20.20;;;23.40;60.90;;;;;;220121;1278;23206;-44
2023/01/27 15:16:48;;;;;;;24.30;19.60;;;23.30;60.80;;;;;;221436;1267;22712;-46
2023/01/27 15:22:12;;;;;;;25.00;20.40;;;23.20;61.30;;;;;;221513;1272;23257;-47
2023/01/27 15:27:16;;;;;;;33.10;22.70;;;23.20;61.70;;;;;;221411;1259;24425;-46
2023/01/27 15:32:21;;;;;;;30.10;24.50;;;23.30;60.30;;;;;;221532;1274;25545;-44
2023/01/27 15:37:29;;;;;;;33.50;26.50;;;23.30;59.40;;;;;;221484;1264;24437;-48
2023/01/27 15:43:03;;;;;;;31.50;25.90;;;23.10;57.70;;;;;;221331;1269;22631;-49
2023/01/27 15:48:15;;;;;;;41.60;28.50;;;23.00;57.50;;;;;;221547;1253;24242;-45
2023/01/27 15:53:40;;;;;;;40.90;28.60;;;22.80;57.00;;;;;;221445;1270;22543;-47
2023/01/27 15:58:56;;;;;;;36.70;26.60;;;22.60;56.50;;;;;;221263;1269;22746;-44
2023/01/27 16:04:13;;;;;;;37.60;24.60;;;22.60;58.20;;;;;;221570;1269;22539;-46
2023/01/27 16:09:34;;;;;;;36.10;25.20;;;22.60;57.90;;;;;;221471;1269;25785;-45
2023/01/27 16:14:41;;;;;;;38.50;23.90;;;22.50;58.20;;;;;;221445;1261;22488;-48
2023/01/27 16:19:55;;;;;;;30.80;23.90;;;22.50;58.80;;;;;;221420;1264;22552;-47
2023/01/27 16:25:19;;;;;;;36.00;27.10;;;22.50;57.90;;;;;;221315;1260;24222;-46
2023/01/27 16:30:56;;;;;;;32.50;24.90;;;22.20;56.30;;;;;;221170;1269;23079;-47
2023/01/27 16:36:22;;;;;;;29.10;23.40;;;22.10;56.50;;;;;;221325;1267;22550;-50
2023/01/27 16:41:29;;;;;;;28.50;23.70;;;22.10;56.80;;;;;;221549;1269;22613;-46
2023/01/27 16:46:41;;;;;;;31.10;24.80;;;22.10;55.70;;;;;;221579;1269;22888;-46
2023/01/27 16:51:58;;;;;;;30.40;23.30;;;22.10;56.50;;;;;;221520;1259;23901;-57
2023/01/27 16:57:04;;;;;;;27.70;24.20;;;22.10;56.00;;;;;;221566;1263;24219;-46
2023/01/27 17:02:20;;;;;;;29.10;22.90;;;22.10;55.60;;;;;;221447;1264;24286;-50
2023/01/27 17:07:25;;;;;;;33.60;23.20;;;22.00;55.40;;;;;;221385;1259;26578;-46
2023/01/27 17:12:34;;;;;;;27.00;23.80;;;21.80;55.50;;;;;;221268;1265;22594;-46
2023/01/27 17:17:39;;;;;;;29.90;23.60;;;21.80;55.70;;;;;;221429;1272;22540;-45
2023/01/27 17:22:44;;;;;;;35.70;23.90;;;21.80;55.20;;;;;;221375;1252;23924;-47
2023/01/27 17:27:49;;;;;;;25.60;22.80;;;21.70;55.10;;;;;;221407;1257;24174;-48
2023/01/27 17:32:57;;;;;;;26.50;22.60;;;21.60;55.00;;;;;;221399;1265;22537;-47
2023/01/27 17:38:14;;;;;;;25.30;21.20;;;21.80;54.70;;;;;;221301;1256;25310;-50
2023/01/27 17:43:27;;;;;;;24.70;20.70;;;21.90;54.70;;;;;;221103;1269;22634;-46
2023/01/27 17:48:37;;;;;;;26.60;21.20;;;22.10;54.60;;;;;;221299;1267;23887;-49
2023/01/27 17:53:43;;;;;;;24.00;20.50;;;22.40;54.10;;;;;;221401;1262;24254;-48
2023/01/27 17:58:59;;;;;;;27.00;20.10;;;22.60;54.00;;;;;;221379;1260;22526;-55
2023/01/27 18:04:05;;;;;;;23.90;20.90;;;22.70;54.40;;;;;;221391;1274;24379;-50
2023/01/27 18:09:27;;;;;;;23.00;18.90;;;22.90;54.00;;;;;;221416;1269;22675;-48
2023/01/27 18:14:34;;;;;;;21.00;18.70;;;22.90;54.10;;;;;;221193;1256;26501;-51
2023/01/27 18:19:52;;;;;;;21.00;18.60;;;22.90;54.10;;;;;;221475;1274;24037;-53
2023/01/27 18:25:00;;;;;;;24.40;20.10;;;22.90;54.10;;;;;;221248;1269;25455;-47
2023/01/27 18:30:12;;;;;;;20.30;18.10;;;22.90;54.60;;;;;;221524;1269;22539;-51
2023/01/27 18:35:24;;;;;;;22.90;19.80;;;23.00;54.20;;;;;;221351;1272;22656;-50
2023/01/27 18:40:36;;;;;;;21.90;19.00;;;23.10;54.00;;;;;;221417;1269;24335;-52
2023/01/27 18:45:42;;;;;;;;;;;23.10;54.00;;;;;;221438;1267;26670;-47
2023/01/27 18:50:49;;;;;;;19.30;17.20;;;23.20;53.90;;;;;;221633;1264;22546;-52
2023/01/27 18:55:53;;;;;;;19.70;17.60;;;23.30;53.90;;;;;;221683;1267;24327;-45
2023/01/27 19:00:59;;;;;;;20.10;18.10;;;23.30;54.00;;;;;;221514;1266;24203;-51
2023/01/27 19:06:15;;;;;;;19.60;17.30;;;23.30;54.00;;;;;;221494;1259;22568;-47
2023/01/27 19:11:19;;;;;;;19.40;17.40;;;23.40;53.40;;;;;;221583;1259;26089;-48
2023/01/27 19:16:26;;;;;;;19.30;17.20;;;23.50;53.50;;;;;;221532;1259;25430;-50
2023/01/27 19:21:30;;;;;;;20.60;17.40;;;23.60;53.50;;;;;;221414;1267;25346;-51
2023/01/27 19:26:36;;;;;;;19.10;17.10;;;23.60;53.80;;;;;;221369;1267;26517;-48
2023/01/27 19:31:42;;;;;;;20.20;16.90;;;23.60;53.70;;;;;;221368;1271;22536;-51
2023/01/27 19:36:47;;;;;;;19.70;17.60;;;23.60;53.30;;;;;;221490;1267;23918;-52
2023/01/27 19:41:55;;;;;;;19.10;17.00;;;23.70;53.60;;;;;;221403;1262;22534;-52
2023/01/27 19:47:02;;;;;;;18.70;16.60;;;23.80;53.90;;;;;;221405;1260;22670;-50
2023/01/27 19:52:08;;;;;;;18.90;16.80;;;23.80;53.90;;;;;;221389;1271;22545;-48
2023/01/27 19:57:15;;;;;;;19.90;16.50;;;23.90;53.40;;;;;;221200;1272;24232;-50
2023/01/27 20:02:21;;;;;;;18.70;16.30;;;24.00;53.30;;;;;;221251;1268;26511;-53
2023/01/27 20:07:27;;;;;;;18.20;15.90;;;24.00;53.20;;;;;;221478;1268;23137;-52
2023/01/27 20:12:34;;;;;;;17.30;15.50;;;23.90;53.10;;;;;;221322;1272;23970;-53
2023/01/27 20:17:41;;;;;;;18.60;16.00;;;23.80;53.40;;;;;;221307;1260;22537;-51
2023/01/27 20:23:01;;;;;;;18.90;16.60;;;23.70;53.70;;;;;;221357;1272;24389;-50
2023/01/27 20:28:09;;;;;;;18.00;16.10;;;23.80;53.30;;;;;;221379;1269;22714;-50
2023/01/27 20:33:15;;;;;;;18.10;16.30;;;23.70;53.00;;;;;;221378;1260;24219;-50
2023/01/27 20:38:21;;;;;;;17.70;15.70;;;23.60;52.90;;;;;;221283;1264;24340;-52
2023/01/27 20:43:31;;;;;;;19.00;17.00;;;23.50;53.10;;;;;;221224;1274;24213;-52
2023/01/27 20:48:40;;;;;;;18.30;16.40;;;23.30;53.30;;;;;;222834;1272;22761;-53
2023/01/27 20:53:48;;;;;;;18.30;16.50;;;23.30;53.20;;;;;;221365;1274;24296;-50
2023/01/27 20:58:55;;;;;;;19.50;16.70;;;23.00;53.60;;;;;;221337;1267;22549;-54
2023/01/27 21:04:00;;;;;;;18.60;16.40;;;22.90;53.80;;;;;;221321;1267;22543;-46
2023/01/27 21:09:05;;;;;;;17.10;15.40;;;22.80;54.80;;;;;;221394;1256;25429;-46
2023/01/27 21:14:12;;;;;;;17.80;15.40;;;22.70;54.50;;;;;;221413;1272;22552;-47
2023/01/27 21:19:19;;;;;;;17.90;16.10;;;22.60;54.20;;;;;;221488;1264;22549;-49
2023/01/27 21:24:26;;;;;;;18.00;16.10;;;22.50;54.60;;;;;;221568;1272;26420;-47
2023/01/27 21:29:31;;;;;;;16.80;15.10;;;22.40;54.20;;;;;;221401;1272;22678;-51
2023/01/27 21:34:36;;;;;;;18.90;16.70;;;22.30;54.10;;;;;;221476;1253;24253;-47
2023/01/27 21:39:41;;;;;;;17.20;15.40;;;22.30;54.50;;;;;;221489;1269;25300;-50
2023/01/27 21:50:10;;;;;;;17.90;15.80;;;22.00;54.70;;;;;;221498;1266;24040;-53
2023/01/27 21:55:21;;;;;;;16.30;14.70;;;22.00;54.20;;;;;;221323;1272;25365;-50
2023/01/27 22:00:27;;;;;;;16.70;15.10;;;21.90;54.40;;;;;;221363;1274;23726;-50
2023/01/27 22:05:34;;;;;;;17.00;14.50;;;22.20;53.40;;;;;;221402;1260;23038;-51
2023/01/27 22:10:38;;;;;;;17.00;15.30;;;22.50;52.50;;;;;;221387;1274;24209;-51
2023/01/27 22:15:49;;;;;;;16.30;14.80;;;22.80;51.60;;;;;;221417;1269;25436;-51
2023/01/27 22:20:53;;;;;;;17.00;14.50;;;23.00;51.30;;;;;;221310;1270;25544;-48
2023/01/27 22:25:57;;;;;;;15.50;13.90;;;23.10;50.80;;;;;;221355;1269;22649;-51
2023/01/27 22:31:01;;;;;;;15.50;14.00;;;23.20;51.10;;;;;;221195;1274;22575;-53
2023/01/27 22:36:06;;;;;;;15.50;14.00;;;23.30;50.50;;;;;;221417;1260;22556;-53
2023/01/27 22:41:10;;;;;;;15.20;13.70;;;23.30;50.40;;;;;;221433;1263;24339;-53
2023/01/27 22:46:15;;;;;;;16.90;15.10;;;23.40;49.80;;;;;;221438;1272;22530;-49
2023/01/27 22:51:19;;;;;;;15.50;13.90;;;23.40;49.70;;;;;;221434;1272;22537;-50
2023/01/27 22:56:23;;;;;;;16.40;13.80;;;23.50;49.90;;;;;;221512;1274;23947;-52
2023/01/27 23:01:28;;;;;;;15.50;13.90;;;23.50;49.40;;;;;;221492;1267;22524;-50
2023/01/27 23:06:32;;;;;;;15.20;13.60;;;23.60;49.10;;;;;;221462;1267;27448;-51
2023/01/27 23:11:36;;;;;;;14.20;12.80;;;23.70;49.00;;;;;;221442;1260;23814;-51
2023/01/27 23:16:40;;;;;;;12.70;11.40;;;23.70;48.90;;;;;;221304;1274;22645;-50
2023/01/27 23:21:45;;;;;;;14.80;13.10;;;23.70;49.30;;;;;;221456;1261;22669;-47
2023/01/27 23:26:48;;;;;;;14.50;13.00;;;23.80;49.00;;;;;;221506;1253;24363;-50
2023/01/27 23:31:53;;;;;;;14.20;12.70;;;23.80;48.90;;;;;;221337;1270;22527;-49
2023/01/27 23:36:57;;;;;;;13.60;12.30;;;23.90;48.70;;;;;;221371;1271;22650;-48
2023/01/27 23:42:02;;;;;;;14.30;12.90;;;23.90;48.70;;;;;;221338;1267;23831;-48
2023/01/27 23:47:06;;;;;;;14.20;12.10;;;23.90;48.60;;;;;;221411;1257;22932;-50
2023/01/27 23:52:10;;;;;;;13.50;12.10;;;23.90;48.60;;;;;;221292;1269;22531;-51
2023/01/27 23:57:16;;;;;;;13.80;12.50;;;23.90;48.60;;;;;;221450;1274;22549;-51
